Time;durP1;ratioP1;P1;durP2;ratioP2;P2;SDS_P1;SDS_P2;PMS_P1;PMS_P2;Temp;Humidity;BMP_temperature;BMP_pressure;BME280_temperature;BME280_humidity;BME280_pressure;Samples;Min_cycle;Max_cycle;Signal;HPM_P1;HPM_P2
2023/09/12 00:01:07;;;;;;;;;;;16.40;99.90;;;;;;5094377;28;19999;-65
2023/09/12 00:03:34;;;;;;;;;;;16.50;99.90;;;;;;5094208;28;19908;-66
2023/09/12 00:06:01;;;;;;;;;;;16.50;99.90;;;;;;5094011;28;20382;-66
2023/09/12 00:08:28;;;;;;;;;;;16.60;99.90;;;;;;5094182;28;19914;-65
2023/09/12 00:11:01;;;;;;;;;;;16.80;99.90;;;;;;5093947;28;19927;-66
2023/09/12 00:13:28;;;;;;;;;;;16.90;99.90;;;;;;5094347;28;19953;-65
2023/09/12 00:15:54;;;;;;;;;;;17.00;99.90;;;;;;5094277;28;19914;-65
2023/09/12 00:18:21;;;;;;;;;;;17.00;99.90;;;;;;5094207;28;19961;-66
2023/09/12 00:20:48;;;;;;;;;;;17.10;99.90;;;;;;5094123;28;19916;-67
2023/09/12 00:23:14;;;;;;;;;;;17.20;99.90;;;;;;5094036;28;19908;-67
2023/09/12 00:25:41;;;;;;;;;;;17.30;99.90;;;;;;5094109;28;19955;-66
2023/09/12 00:28:07;;;;;;;;;;;17.40;99.90;;;;;;5093821;28;19955;-67
2023/09/12 00:30:34;;;;;;;;;;;17.40;99.90;;;;;;5094101;28;19916;-65
2023/09/12 00:33:01;;;;;;;;;;;17.60;99.90;;;;;;5094015;28;19958;-66
2023/09/12 00:35:27;;;;;;;;;;;17.60;99.90;;;;;;5093959;28;19995;-65
2023/09/12 00:37:54;;;;;;;;;;;17.80;99.90;;;;;;5093745;28;19908;-65
2023/09/12 00:40:20;;;;;;;;;;;17.80;99.60;;;;;;5093553;28;20422;-66
2023/09/12 00:42:47;;;;;;;;;;;18.00;99.60;;;;;;5093860;28;19947;-65
2023/09/12 00:45:14;;;;;;;;;;;18.20;99.10;;;;;;5093641;28;20368;-67
2023/09/12 00:47:40;;;;;;;;;;;18.40;99.20;;;;;;5093261;28;19920;-65
2023/09/12 00:50:08;;;;;;;;;;;18.70;98.80;;;;;;5093111;28;19916;-65
2023/09/12 00:52:35;;;;;;;;;;;19.00;97.90;;;;;;5093272;28;19912;-66
2023/09/12 00:55:06;;;;;;;;;;;19.30;97.40;;;;;;5092878;28;21277;-65
2023/09/12 00:57:34;;;;;;;;;;;19.40;96.50;;;;;;5093538;28;19908;-65
2023/09/12 01:00:10;;;;;;;;;;;19.50;96.40;;;;;;5093368;28;20399;-66
2023/09/12 01:02:44;;;;;;;;;;;19.70;96.10;;;;;;5093103;28;20356;-70
2023/09/12 01:05:11;;;;;;;;;;;19.90;95.60;;;;;;5093160;28;19915;-64
2023/09/12 01:07:38;;;;;;;;;;;20.10;95.20;;;;;;5093292;28;19995;-65
2023/09/12 01:10:05;;;;;;;;;;;20.30;93.90;;;;;;5093263;28;20368;-65
2023/09/12 01:12:32;;;;;;;;;;;20.50;94.20;;;;;;5093487;28;20280;-65
2023/09/12 01:14:59;;;;;;;;;;;20.80;93.60;;;;;;5093009;28;19909;-68
2023/09/12 01:17:26;;;;;;;;;;;21.10;93.10;;;;;;5092751;28;19909;-67
2023/09/12 01:19:53;;;;;;;;;;;21.30;92.30;;;;;;5093019;28;20320;-66
2023/09/12 01:22:38;;;;;;;;;;;21.50;92.00;;;;;;5093006;28;19958;-67
2023/09/12 01:25:07;;;;;;;;;;;21.40;91.30;;;;;;5092861;28;19908;-67
2023/09/12 01:27:46;;;;;;;;;;;21.50;91.00;;;;;;5092706;28;19909;-69
2023/09/12 01:30:16;;;;;;;;;;;21.50;90.90;;;;;;5092786;28;20341;-68
2023/09/12 01:32:42;;;;;;;;;;;21.50;90.80;;;;;;5093180;28;19962;-67
2023/09/12 01:35:09;;;;;;;;;;;21.50;90.80;;;;;;5093058;28;20388;-65
2023/09/12 01:37:36;;;;;;;;;;;21.50;90.50;;;;;;5092600;28;19908;-66
2023/09/12 01:40:03;;;;;;;;;;;21.60;90.50;;;;;;5092798;28;20041;-66
2023/09/12 01:42:42;;;;;;;;;;;21.90;90.30;;;;;;5092775;28;20418;-65
2023/09/12 01:45:18;;;;;;;;;;;22.10;88.10;;;;;;5092675;28;20353;-65
2023/09/12 01:47:47;;;;;;;;;;;22.00;87.70;;;;;;5092516;28;19920;-65
2023/09/12 01:50:13;;;;;;;;;;;22.10;88.80;;;;;;5092137;28;19931;-65
2023/09/12 01:52:41;;;;;;;;;;;22.40;89.40;;;;;;5092622;28;19913;-66
2023/09/12 01:55:11;;;;;;;;;;;22.40;88.10;;;;;;5092551;28;19909;-65
2023/09/12 01:57:38;;;;;;;;;;;22.30;88.80;;;;;;5092463;28;19908;-66
2023/09/12 02:00:05;;;;;;;;;;;22.10;88.20;;;;;;5092999;28;19908;-67
2023/09/12 02:02:31;;;;;;;;;;;22.30;87.90;;;;;;5092905;28;19908;-67
2023/09/12 02:05:04;;;;;;;;;;;22.40;87.00;;;;;;5092755;28;19995;-66
2023/09/12 02:07:33;;;;;;;;;;;22.50;87.00;;;;;;5092672;28;19908;-66
2023/09/12 02:10:00;;;;;;;;;;;22.80;87.40;;;;;;5092236;28;19908;-67
2023/09/12 02:12:27;;;;;;;;;;;23.30;86.40;;;;;;5092580;28;20367;-65
2023/09/12 02:14:53;;;;;;;;;;;23.90;86.10;;;;;;5092583;28;19912;-67
2023/09/12 02:17:20;;;;;;;;;;;23.90;83.00;;;;;;5092537;28;19908;-66
2023/09/12 02:19:49;;;;;;;;;;;24.10;84.70;;;;;;5092621;28;20014;-66
2023/09/12 02:22:16;;;;;;;;;;;24.30;82.50;;;;;;5092611;28;19908;-66
2023/09/12 02:24:43;;;;;;;;;;;24.10;81.80;;;;;;5092876;28;20326;-66
2023/09/12 02:27:09;;;;;;;;;;;24.30;81.70;;;;;;5092766;28;19908;-66
2023/09/12 02:29:36;;;;;;;;;;;24.40;81.90;;;;;;5096879;28;19908;-65
2023/09/12 02:32:03;;;;;;;;;;;24.30;80.70;;;;;;5096312;28;19927;-66
2023/09/12 02:34:30;;;;;;;;;;;24.30;83.30;;;;;;5095898;28;19908;-65
2023/09/12 02:36:56;;;;;;;;;;;24.70;83.00;;;;;;5095858;28;19912;-69
2023/09/12 02:39:23;;;;;;;;;;;25.40;79.50;;;;;;5096148;28;19908;-67
2023/09/12 02:41:49;;;;;;;;;;;25.80;78.60;;;;;;5096017;28;19974;-65
2023/09/12 02:44:16;;;;;;;;;;;26.20;75.40;;;;;;5096138;28;20292;-65
2023/09/12 02:46:43;;;;;;;;;;;26.30;75.70;;;;;;5095452;28;20007;-66
2023/09/12 02:49:09;;;;;;;;;;;26.50;74.40;;;;;;5095751;28;20014;-66
2023/09/12 02:51:38;;;;;;;;;;;25.80;72.70;;;;;;5095879;28;19940;-67
2023/09/12 02:54:05;;;;;;;;;;;25.30;73.90;;;;;;5096198;28;19958;-68
2023/09/12 02:56:32;;;;;;;;;;;24.70;74.40;;;;;;5096071;28;19908;-66
2023/09/12 02:58:58;;;;;;;;;;;24.20;75.40;;;;;;5095561;28;20365;-67
2023/09/12 03:01:27;;;;;;;;;;;23.50;75.20;;;;;;5095473;28;19916;-67
2023/09/12 03:03:54;;;;;;;;;;;23.20;76.90;;;;;;5095291;28;19908;-66
2023/09/12 03:06:21;;;;;;;;;;;22.90;77.90;;;;;;5095882;28;20349;-66
2023/09/12 03:08:48;;;;;;;;;;;22.80;78.30;;;;;;5095507;28;20364;-67
2023/09/12 03:11:14;;;;;;;;;;;22.60;79.30;;;;;;5095315;28;19916;-66
2023/09/12 03:13:42;;;;;;;;;;;22.40;81.10;;;;;;5095318;28;20003;-67
2023/09/12 03:16:12;;;;;;;;;;;22.30;83.30;;;;;;5095477;28;19908;-66
2023/09/12 03:18:38;;;;;;;;;;;22.20;83.80;;;;;;5095337;28;19995;-66
2023/09/12 03:21:05;;;;;;;;;;;22.10;84.70;;;;;;5095389;28;19924;-67
2023/09/12 03:23:32;;;;;;;;;;;22.00;85.00;;;;;;5095237;28;19915;-66
2023/09/12 03:26:05;;;;;;;;;;;22.00;85.60;;;;;;5095028;28;19908;-67
2023/09/12 03:28:32;;;;;;;;;;;22.10;85.90;;;;;;5094887;28;20356;-65
2023/09/12 03:31:11;;;;;;;;;;;22.70;84.70;;;;;;5095046;28;19915;-66
2023/09/12 03:33:38;;;;;;;;;;;23.90;84.00;;;;;;5095115;28;19908;-66
2023/09/12 03:36:06;;;;;;;;;;;25.40;80.00;;;;;;5095123;28;19908;-66
2023/09/12 03:38:33;;;;;;;;;;;26.40;76.80;;;;;;5094371;28;19937;-66
2023/09/12 03:41:00;;;;;;;;;;;26.60;75.30;;;;;;5094407;28;19908;-66
2023/09/12 03:43:26;;;;;;;;;;;27.00;74.50;;;;;;5094922;28;19908;-65
2023/09/12 03:45:54;;;;;;;;;;;27.00;74.50;;;;;;5095202;28;20340;-66
2023/09/12 03:48:20;;;;;;;;;;;26.90;74.80;;;;;;5094438;28;19920;-66
2023/09/12 03:50:47;;;;;;;;;;;26.80;74.20;;;;;;5094813;28;19969;-65
2023/09/12 03:53:15;;;;;;;;;;;26.70;75.90;;;;;;5094781;28;19977;-65
2023/09/12 03:55:42;;;;;;;;;;;26.40;76.50;;;;;;5094725;28;19908;-65
2023/09/12 03:58:09;;;;;;;;;;;25.90;74.80;;;;;;5094419;28;19939;-65
2023/09/12 04:00:35;;;;;;;;;;;25.00;76.60;;;;;;5094488;28;20355;-67
2023/09/12 04:03:02;;;;;;;;;;;24.30;78.50;;;;;;5094511;28;19908;-67
2023/09/12 04:05:28;;;;;;;;;;;23.70;79.30;;;;;;5094338;28;19908;-66
2023/09/12 04:07:55;;;;;;;;;;;23.10;81.60;;;;;;5094285;28;20368;-67
2023/09/12 04:10:22;;;;;;;;;;;22.70;82.40;;;;;;5094114;28;19912;-65
2023/09/12 04:12:48;;;;;;;;;;;22.40;83.40;;;;;;5094340;28;19912;-67
2023/09/12 04:15:15;;;;;;;;;;;22.20;83.80;;;;;;5094330;28;19908;-67
2023/09/12 04:17:42;;;;;;;;;;;22.00;84.40;;;;;;5094311;28;19908;-66
2023/09/12 04:20:08;;;;;;;;;;;21.80;84.80;;;;;;5094051;28;19959;-66
2023/09/12 04:22:35;;;;;;;;;;;21.60;85.10;;;;;;5094079;28;19912;-67
2023/09/12 04:25:03;;;;;;;;;;;21.50;84.80;;;;;;5093742;28;20006;-66
2023/09/12 04:27:29;;;;;;;;;;;21.50;85.50;;;;;;5093860;28;19908;-67
2023/09/12 04:29:56;;;;;;;;;;;21.40;86.10;;;;;;5092668;28;20323;-69
2023/09/12 04:32:23;;;;;;;;;;;21.50;85.70;;;;;;5093767;28;19912;-67
2023/09/12 04:34:50;;;;;;;;;;;21.40;85.60;;;;;;5093851;28;19908;-66
2023/09/12 04:37:17;;;;;;;;;;;21.30;85.90;;;;;;5093799;28;20361;-66
2023/09/12 04:39:44;;;;;;;;;;;21.20;86.90;;;;;;5093805;28;20289;-66
2023/09/12 04:42:10;;;;;;;;;;;21.10;87.30;;;;;;5093857;28;19908;-66
2023/09/12 04:44:40;;;;;;;;;;;21.10;88.60;;;;;;5093674;28;19985;-66
2023/09/12 04:47:08;;;;;;;;;;;21.10;90.00;;;;;;5093247;28;19935;-66
2023/09/12 04:49:34;;;;;;;;;;;21.20;90.00;;;;;;5093436;28;19960;-67
2023/09/12 04:52:01;;;;;;;;;;;21.30;90.10;;;;;;5093088;28;19968;-66
2023/09/12 04:54:27;;;;;;;;;;;21.70;90.00;;;;;;5093442;28;20000;-66
2023/09/12 04:56:54;;;;;;;;;;;21.90;88.80;;;;;;5088535;28;20289;-70
2023/09/12 04:59:21;;;;;;;;;;;22.20;88.70;;;;;;5088995;28;19916;-68
2023/09/12 05:01:48;;;;;;;;;;;22.30;87.70;;;;;;5088878;28;19908;-69
2023/09/12 05:04:14;;;;;;;;;;;22.30;88.40;;;;;;5090509;28;19909;-71
2023/09/12 05:06:41;;;;;;;;;;;22.80;89.30;;;;;;5092375;28;19912;-67
2023/09/12 05:09:09;;;;;;;;;;;24.00;87.70;;;;;;5083369;28;19916;-67
2023/09/12 05:11:35;;;;;;;;;;;25.70;82.90;;;;;;5091403;28;19916;-69
2023/09/12 05:14:05;;;;;;;;;;;27.40;79.00;;;;;;5085425;28;19913;-67
2023/09/12 05:16:31;;;;;;;;;;;28.40;76.40;;;;;;5092217;28;19998;-67
2023/09/12 05:18:58;;;;;;;;;;;28.10;73.90;;;;;;5091146;28;19912;-67
2023/09/12 05:21:25;;;;;;;;;;;27.50;75.00;;;;;;5092165;28;19904;-68
2023/09/12 05:23:51;;;;;;;;;;;26.70;76.50;;;;;;5084331;28;20384;-68
2023/09/12 05:26:18;;;;;;;;;;;26.40;77.00;;;;;;5092450;28;19998;-69
2023/09/12 05:28:44;;;;;;;;;;;26.40;77.50;;;;;;5089513;28;19920;-69
2023/09/12 05:31:11;;;;;;;;;;;26.80;76.80;;;;;;5092130;28;20392;-68
2023/09/12 05:33:38;;;;;;;;;;;27.40;76.90;;;;;;5083335;28;20042;-68
2023/09/12 05:36:05;;;;;;;;;;;27.80;75.90;;;;;;5091827;28;19951;-68
2023/09/12 05:38:31;;;;;;;;;;;27.30;75.00;;;;;;5089885;28;19912;-67
2023/09/12 05:40:58;;;;;;;;;;;26.50;76.00;;;;;;5092181;28;19930;-68
2023/09/12 05:43:24;;;;;;;;;;;25.80;77.80;;;;;;5083153;28;19919;-67
2023/09/12 05:45:51;;;;;;;;;;;25.70;79.10;;;;;;5092115;28;19912;-68
2023/09/12 05:48:18;;;;;;;;;;;26.30;78.60;;;;;;5091575;28;19954;-68
2023/09/12 05:50:44;;;;;;;;;;;27.30;77.00;;;;;;5090805;28;19916;-68
2023/09/12 05:53:11;;;;;;;;;;;27.80;75.40;;;;;;5082339;28;19912;-69
2023/09/12 05:55:37;;;;;;;;;;;28.00;74.40;;;;;;5092234;28;20284;-68
2023/09/12 05:58:05;;;;;;;;;;;27.50;74.10;;;;;;5088508;28;19958;-68
2023/09/12 06:00:32;;;;;;;;;;;27.40;74.70;;;;;;5092477;28;20382;-67
2023/09/12 06:02:59;;;;;;;;;;;27.30;74.80;;;;;;5083341;28;19912;-67
2023/09/12 06:05:25;;;;;;;;;;;26.50;75.80;;;;;;5096036;28;19908;-67
2023/09/12 06:07:52;;;;;;;;;;;25.40;78.20;;;;;;5091803;28;19940;-68
2023/09/12 06:10:19;;;;;;;;;;;24.30;80.80;;;;;;5096077;28;19916;-68
2023/09/12 06:12:45;;;;;;;;;;;23.40;83.30;;;;;;5085941;28;19909;-67
2023/09/12 06:15:12;;;;;;;;;;;23.00;85.50;;;;;;5094470;28;19979;-67
2023/09/12 06:17:39;;;;;;;;;;;23.00;85.90;;;;;;5092872;28;20521;-70
2023/09/12 06:20:06;;;;;;;;;;;23.30;85.30;;;;;;5093608;28;20289;-68
2023/09/12 06:22:33;;;;;;;;;;;23.70;83.80;;;;;;5087389;28;20380;-68
2023/09/12 06:25:00;;;;;;;;;;;23.80;84.30;;;;;;5092706;28;19995;-68
2023/09/12 06:27:26;;;;;;;;;;;24.10;82.50;;;;;;5094604;28;19973;-68
2023/09/12 06:29:53;;;;;;;;;;;23.80;83.10;;;;;;5107236;28;19915;-68
2023/09/12 06:32:20;;;;;;;;;;;23.40;84.30;;;;;;5103356;28;20015;-67
2023/09/12 06:34:47;;;;;;;;;;;23.20;84.20;;;;;;5090230;28;20015;-68
2023/09/12 06:37:13;;;;;;;;;;;22.80;85.00;;;;;;5095617;28;19999;-69
2023/09/12 06:39:40;;;;;;;;;;;22.30;86.30;;;;;;5089549;28;19964;-68
2023/09/12 06:42:07;;;;;;;;;;;21.70;88.00;;;;;;5090723;28;20325;-66
2023/09/12 06:44:33;;;;;;;;;;;21.40;89.50;;;;;;5087421;28;19957;-68
2023/09/12 06:47:00;;;;;;;;;;;21.00;90.00;;;;;;5095422;28;19920;-67
2023/09/12 06:49:27;;;;;;;;;;;20.70;90.50;;;;;;5093264;28;20369;-68
2023/09/12 06:51:53;;;;;;;;;;;20.70;90.60;;;;;;5092543;28;20421;-70
2023/09/12 06:54:20;;;;;;;;;;;20.40;90.40;;;;;;5088988;28;20669;-68
2023/09/12 06:56:47;;;;;;;;;;;20.10;90.70;;;;;;5095164;28;19912;-68
2023/09/12 06:59:13;;;;;;;;;;;20.00;90.90;;;;;;5091318;28;19924;-69
2023/09/12 07:01:40;;;;;;;;;;;19.80;91.00;;;;;;5094258;28;19958;-66
2023/09/12 07:04:06;;;;;;;;;;;19.70;91.10;;;;;;5086353;28;19959;-67
2023/09/12 07:06:33;;;;;;;;;;;19.50;91.30;;;;;;5095001;28;19954;-67
2023/09/12 07:09:00;;;;;;;;;;;19.40;91.70;;;;;;5092030;28;19912;-68
2023/09/12 07:11:26;;;;;;;;;;;19.30;92.30;;;;;;5094458;28;19916;-68
2023/09/12 07:13:53;;;;;;;;;;;19.10;93.10;;;;;;5084508;28;19919;-68
2023/09/12 07:16:20;;;;;;;;;;;18.90;93.90;;;;;;5094849;28;19938;-67
2023/09/12 07:18:48;;;;;;;;;;;18.70;94.40;;;;;;5091146;28;19924;-67
2023/09/12 07:21:14;;;;;;;;;;;18.60;95.10;;;;;;5094753;28;19908;-68
2023/09/12 07:23:41;;;;;;;;;;;18.40;95.60;;;;;;5083759;28;19912;-67
2023/09/12 07:26:11;;;;;;;;;;;18.30;96.00;;;;;;5094576;28;19908;-67
2023/09/12 07:28:38;;;;;;;;;;;18.30;96.40;;;;;;5090318;28;19958;-68
2023/09/12 07:31:05;;;;;;;;;;;18.20;96.60;;;;;;5093331;28;20396;-68
2023/09/12 07:33:31;;;;;;;;;;;18.00;97.10;;;;;;5080394;28;19912;-74
2023/09/12 07:35:59;;;;;;;;;;;18.00;97.50;;;;;;5094415;28;19908;-67
2023/09/12 07:38:26;;;;;;;;;;;17.90;98.00;;;;;;5089442;28;19916;-67
2023/09/12 07:40:53;;;;;;;;;;;17.80;98.20;;;;;;5093997;28;20373;-67
2023/09/12 07:43:21;;;;;;;;;;;17.80;98.60;;;;;;5086951;28;19920;-67
2023/09/12 07:45:49;;;;;;;;;;;17.80;98.80;;;;;;5087819;28;19919;-67
2023/09/12 07:48:15;;;;;;;;;;;17.70;99.10;;;;;;5078953;28;20053;-68
2023/09/12 07:50:42;;;;;;;;;;;17.70;99.30;;;;;;5093437;28;19919;-68
2023/09/12 07:53:09;;;;;;;;;;;17.60;99.60;;;;;;5092636;28;19916;-68
2023/09/12 07:55:48;;;;;;;;;;;17.60;99.90;;;;;;5087075;28;20284;-69
2023/09/12 07:58:15;;;;;;;;;;;17.60;99.90;;;;;;5083745;28;19919;-66
2023/09/12 08:00:42;;;;;;;;;;;17.40;99.90;;;;;;5091383;28;19939;-69
2023/09/12 08:03:09;;;;;;;;;;;17.30;99.90;;;;;;5079448;28;19951;-67
2023/09/12 08:05:36;;;;;;;;;;;17.20;99.90;;;;;;5092579;28;19920;-68
2023/09/12 08:08:03;;;;;;;;;;;17.10;99.90;;;;;;5090113;28;19931;-67
2023/09/12 08:10:30;;;;;;;;;;;17.00;99.90;;;;;;5090811;28;19993;-66
2023/09/12 08:12:56;;;;;;;;;;;16.90;99.90;;;;;;5083311;28;19908;-65
2023/09/12 08:15:23;;;;;;;;;;;16.90;99.90;;;;;;5092577;28;19912;-68
2023/09/12 08:17:51;;;;;;;;;;;16.80;99.90;;;;;;5086998;28;20495;-68
2023/09/12 08:20:22;;;;;;;;;;;16.70;99.90;;;;;;5090388;28;20438;-68
2023/09/12 08:22:49;;;;;;;;;;;16.70;99.90;;;;;;5083437;28;19908;-69
2023/09/12 08:25:15;;;;;;;;;;;16.60;99.90;;;;;;5076173;28;20397;-67
2023/09/12 08:27:43;;;;;;;;;;;16.60;99.90;;;;;;5079327;28;19919;-67
2023/09/12 08:30:10;;;;;;;;;;;16.50;99.90;;;;;;5092771;28;20372;-67
2023/09/12 08:32:39;;;;;;;;;;;16.50;99.90;;;;;;5092755;28;19941;-68
2023/09/12 08:35:06;;;;;;;;;;;16.50;99.90;;;;;;5092968;28;20007;-65
2023/09/12 08:37:33;;;;;;;;;;;16.50;99.90;;;;;;5083928;28;19916;-65
2023/09/12 08:40:00;;;;;;;;;;;16.50;99.90;;;;;;5085518;28;20015;-66
2023/09/12 08:42:29;;;;;;;;;;;16.50;99.90;;;;;;5092880;28;19915;-66
2023/09/12 08:44:56;;;;;;;;;;;16.50;99.90;;;;;;5088266;28;19965;-66
2023/09/12 08:47:23;;;;;;;;;;;16.50;99.90;;;;;;5073117;28;19941;-66
2023/09/12 08:49:50;;;;;;;;;;;16.50;99.90;;;;;;5076180;28;19919;-68
2023/09/12 08:52:17;;;;;;;;;;;16.50;99.90;;;;;;5072561;28;20082;-69
2023/09/12 08:54:43;;;;;;;;;;;16.40;99.90;;;;;;5083336;28;20361;-67
2023/09/12 08:57:11;;;;;;;;;;;16.40;99.90;;;;;;5084070;28;19996;-68
2023/09/12 08:59:38;;;;;;;;;;;16.40;99.90;;;;;;5090901;28;19966;-68
2023/09/12 09:02:07;;;;;;;;;;;16.40;99.90;;;;;;5080354;28;19916;-65
2023/09/12 09:04:34;;;;;;;;;;;16.30;99.90;;;;;;5091020;28;19912;-66
2023/09/12 09:07:01;;;;;;;;;;;16.30;99.90;;;;;;5085432;28;20020;-65
2023/09/12 09:09:28;;;;;;;;;;;16.10;99.90;;;;;;5089885;28;19912;-66
2023/09/12 09:11:55;;;;;;;;;;;16.20;99.90;;;;;;5081202;28;20381;-67
2023/09/12 09:14:22;;;;;;;;;;;16.10;99.90;;;;;;5078670;28;19956;-66
2023/09/12 09:16:49;;;;;;;;;;;16.10;99.90;;;;;;5084072;28;19917;-71
2023/09/12 09:19:16;;;;;;;;;;;16.10;99.90;;;;;;5081607;28;19965;-68
2023/09/12 09:21:43;;;;;;;;;;;16.10;99.90;;;;;;5082705;28;20822;-66
2023/09/12 09:24:10;;;;;;;;;;;16.10;99.90;;;;;;5091656;28;19923;-67
2023/09/12 09:26:44;;;;;;;;;;;16.10;99.90;;;;;;5086293;28;19908;-64
2023/09/12 09:29:14;;;;;;;;;;;16.10;99.90;;;;;;5078654;28;19916;-64
2023/09/12 09:31:41;;;;;;;;;;;16.00;99.90;;;;;;5070124;28;20003;-69
2023/09/12 09:34:29;;;;;;;;;;;16.00;99.90;;;;;;5085250;28;19957;-69
2023/09/12 09:36:57;;;;;;;;;;;15.90;99.90;;;;;;5070886;28;20591;-71
2023/09/12 09:39:28;;;;;;;;;;;16.00;99.90;;;;;;5080472;28;19912;-66
2023/09/12 09:41:56;;;;;;;;;;;16.00;99.90;;;;;;5087161;28;19934;-64
2023/09/12 09:44:25;;;;;;;;;;;15.90;99.90;;;;;;5072751;28;19913;-65
2023/09/12 09:46:55;;;;;;;;;;;15.80;99.90;;;;;;5078158;28;20284;-66
2023/09/12 09:49:22;;;;;;;;;;;15.80;99.90;;;;;;5076843;28;19931;-64
2023/09/12 09:51:49;;;;;;;;;;;15.80;99.90;;;;;;5091772;28;19916;-65
2023/09/12 09:54:15;;;;;;;;;;;15.80;99.90;;;;;;5091854;28;20284;-69
2023/09/12 09:56:46;;;;;;;;;;;15.70;99.90;;;;;;5089472;28;19944;-64
2023/09/12 09:59:16;;;;;;;;;;;15.70;99.90;;;;;;5082288;28;19912;-66
2023/09/12 10:01:44;;;;;;;;;;;15.70;99.90;;;;;;5090668;28;20308;-65
2023/09/12 10:04:11;;;;;;;;;;;15.70;99.90;;;;;;5091828;28;19908;-66
2023/09/12 10:06:38;;;;;;;;;;;15.70;99.90;;;;;;5084956;28;19959;-64
2023/09/12 10:09:06;;;;;;;;;;;15.70;99.90;;;;;;5072029;28;19916;-66
2023/09/12 10:11:33;;;;;;;;;;;15.70;99.90;;;;;;5091633;28;19931;-64
2023/09/12 10:14:01;;;;;;;;;;;15.70;99.90;;;;;;5091851;28;19908;-64
2023/09/12 10:16:44;;;;;;;;;;;15.70;99.90;;;;;;5072747;28;19912;-69
2023/09/12 10:19:29;;;;;;;;;;;15.70;99.90;;;;;;5077300;28;19916;-66
2023/09/12 10:22:06;;;;;;;;;;;15.70;99.90;;;;;;5091791;28;19969;-66
2023/09/12 10:24:34;;;;;;;;;;;15.60;99.90;;;;;;5088748;28;20309;-67
2023/09/12 10:27:01;;;;;;;;;;;15.60;99.90;;;;;;5085991;28;20379;-65
2023/09/12 10:29:28;;;;;;;;;;;15.60;99.90;;;;;;5070429;28;19908;-64
2023/09/12 10:31:55;;;;;;;;;;;15.50;99.90;;;;;;5071619;28;20365;-64
2023/09/12 10:34:23;;;;;;;;;;;15.50;99.90;;;;;;5080934;28;20357;-66
2023/09/12 10:36:50;;;;;;;;;;;15.50;99.90;;;;;;5091165;28;19918;-66
2023/09/12 10:39:17;;;;;;;;;;;15.40;99.90;;;;;;5071136;28;19919;-65
2023/09/12 10:41:43;;;;;;;;;;;15.30;99.90;;;;;;5071764;28;20396;-66
2023/09/12 10:44:11;;;;;;;;;;;15.30;99.90;;;;;;5082281;28;19960;-64
2023/09/12 10:46:39;;;;;;;;;;;15.30;99.90;;;;;;5077342;28;19916;-68
2023/09/12 10:49:10;;;;;;;;;;;15.30;99.90;;;;;;5091910;28;19923;-65
2023/09/12 10:51:41;;;;;;;;;;;15.30;99.90;;;;;;5091638;28;19974;-66
2023/09/12 10:54:08;;;;;;;;;;;15.20;99.90;;;;;;5074762;28;19912;-65
2023/09/12 10:56:35;;;;;;;;;;;15.10;99.90;;;;;;5079444;28;20010;-65
2023/09/12 10:59:06;;;;;;;;;;;15.20;99.90;;;;;;5094551;28;19916;-67
2023/09/12 11:01:33;;;;;;;;;;;15.10;99.90;;;;;;5091381;28;19912;-66
2023/09/12 11:04:18;;;;;;;;;;;15.10;99.90;;;;;;5088440;28;20436;-66
2023/09/12 11:06:45;;;;;;;;;;;15.10;99.90;;;;;;5078759;28;19912;-67
2023/09/12 11:09:14;;;;;;;;;;;14.90;99.90;;;;;;5090302;28;19920;-68
2023/09/12 11:11:48;;;;;;;;;;;14.90;99.90;;;;;;5087597;28;19928;-66
2023/09/12 11:14:19;;;;;;;;;;;14.80;99.90;;;;;;5087454;28;19966;-68
2023/09/12 11:17:03;;;;;;;;;;;14.80;99.90;;;;;;5085915;28;19932;-65
2023/09/12 11:19:43;;;;;;;;;;;14.70;99.90;;;;;;5077949;28;19916;-65
2023/09/12 11:22:21;;;;;;;;;;;14.70;99.90;;;;;;5082010;28;19920;-65
2023/09/12 11:24:48;;;;;;;;;;;14.70;99.90;;;;;;5091797;28;19912;-69
2023/09/12 11:27:14;;;;;;;;;;;14.70;99.90;;;;;;5087355;28;19943;-71
2023/09/12 11:29:41;;;;;;;;;;;14.60;99.90;;;;;;5089450;28;19908;-67
2023/09/12 11:32:08;;;;;;;;;;;14.70;99.90;;;;;;5074289;28;20280;-66
2023/09/12 11:34:39;;;;;;;;;;;14.60;99.90;;;;;;5085845;28;20269;-64
2023/09/12 11:37:05;;;;;;;;;;;14.50;99.90;;;;;;5092103;28;20289;-79
2023/09/12 11:39:33;;;;;;;;;;;14.50;99.90;;;;;;5092978;28;20365;-68
2023/09/12 11:42:01;;;;;;;;;;;14.60;99.90;;;;;;5075403;28;19999;-67
2023/09/12 11:44:28;;;;;;;;;;;14.40;99.90;;;;;;5074159;28;20007;-65
2023/09/12 11:46:55;;;;;;;;;;;14.50;99.90;;;;;;5083023;28;19947;-65
2023/09/12 11:49:22;;;;;;;;;;;14.40;99.90;;;;;;5091816;28;19912;-66
2023/09/12 11:51:52;;;;;;;;;;;14.40;99.90;;;;;;5074672;28;19920;-66
2023/09/12 11:54:26;;;;;;;;;;;14.40;99.90;;;;;;5076082;28;19958;-68
2023/09/12 11:56:59;;;;;;;;;;;14.30;99.90;;;;;;5083770;28;20360;-66
2023/09/12 11:59:32;;;;;;;;;;;14.40;99.90;;;;;;5073671;28;20006;-65
2023/09/12 12:01:58;;;;;;;;;;;14.40;99.90;;;;;;5078772;28;20381;-66
2023/09/12 12:04:28;;;;;;;;;;;14.30;99.90;;;;;;5089342;28;20275;-65
2023/09/12 12:06:54;;;;;;;;;;;14.30;99.90;;;;;;5093773;28;19912;-65
2023/09/12 12:09:21;;;;;;;;;;;14.30;99.90;;;;;;5093531;28;19908;-67
2023/09/12 12:11:48;;;;;;;;;;;14.30;99.90;;;;;;5080997;28;19924;-66
2023/09/12 12:14:16;;;;;;;;;;;14.20;99.90;;;;;;5074515;28;19952;-69
2023/09/12 12:16:43;;;;;;;;;;;14.20;99.90;;;;;;5073699;28;19919;-66
2023/09/12 12:19:11;;;;;;;;;;;14.20;99.90;;;;;;5073062;28;19912;-65
2023/09/12 12:21:38;;;;;;;;;;;14.10;99.90;;;;;;5073144;28;20277;-65
2023/09/12 12:24:06;;;;;;;;;;;14.10;99.90;;;;;;5073873;28;20367;-65
2023/09/12 12:26:33;;;;;;;;;;;14.00;99.90;;;;;;5073174;28;19920;-67
2023/09/12 12:29:01;;;;;;;;;;;14.00;99.90;;;;;;5073041;28;20476;-65
2023/09/12 12:31:27;;;;;;;;;;;14.00;99.90;;;;;;5073160;28;19921;-64
2023/09/12 12:33:55;;;;;;;;;;;13.90;99.90;;;;;;5073455;28;19938;-65
2023/09/12 12:36:22;;;;;;;;;;;13.90;99.90;;;;;;5083503;28;19916;-65
2023/09/12 12:38:49;;;;;;;;;;;13.90;99.90;;;;;;5093273;28;20360;-65
2023/09/12 12:41:35;;;;;;;;;;;13.80;99.90;;;;;;5093108;28;19916;-65
2023/09/12 12:44:03;;;;;;;;;;;13.80;99.90;;;;;;5093000;28;20297;-66
2023/09/12 12:46:30;;;;;;;;;;;13.70;99.90;;;;;;5073673;28;19952;-65
2023/09/12 12:48:56;;;;;;;;;;;13.70;99.90;;;;;;5072753;28;19915;-65
2023/09/12 12:51:24;;;;;;;;;;;13.70;99.90;;;;;;5072515;28;19912;-63
2023/09/12 12:53:52;;;;;;;;;;;13.70;99.90;;;;;;5081411;28;20363;-65
2023/09/12 12:56:20;;;;;;;;;;;13.70;99.90;;;;;;5092755;28;19916;-64
2023/09/12 12:58:47;;;;;;;;;;;13.60;99.90;;;;;;5093132;28;19908;-65
2023/09/12 13:01:15;;;;;;;;;;;13.60;99.90;;;;;;5092707;28;19909;-65
2023/09/12 13:03:41;;;;;;;;;;;13.60;99.90;;;;;;5087906;28;19919;-64
2023/09/12 13:06:13;;;;;;;;;;;13.60;99.90;;;;;;5071029;28;20419;-65
2023/09/12 13:08:42;;;;;;;;;;;13.60;99.90;;;;;;5072512;28;19962;-65
2023/09/12 13:11:13;;;;;;;;;;;13.50;99.90;;;;;;5085128;28;19920;-64
2023/09/12 13:13:40;;;;;;;;;;;13.50;99.90;;;;;;5089957;28;20489;-64
2023/09/12 13:16:11;;;;;;;;;;;13.50;99.90;;;;;;5072484;28;19952;-65
2023/09/12 13:18:38;;;;;;;;;;;13.40;99.90;;;;;;5092368;28;19915;-65
2023/09/12 13:21:05;;;;;;;;;;;13.40;99.90;;;;;;5092122;28;19909;-65
2023/09/12 13:23:36;;;;;;;;;;;13.40;99.90;;;;;;5091285;28;20408;-65
2023/09/12 13:26:03;;;;;;;;;;;13.40;99.90;;;;;;5072111;28;20365;-63
2023/09/12 13:28:29;;;;;;;;;;;13.40;99.90;;;;;;5071943;28;20019;-65
2023/09/12 13:30:57;;;;;;;;;;;13.30;99.90;;;;;;5071957;28;19920;-66
2023/09/12 13:33:24;;;;;;;;;;;13.40;99.90;;;;;;5072937;28;19912;-63
2023/09/12 13:35:51;;;;;;;;;;;13.30;99.90;;;;;;5073810;28;19913;-66
2023/09/12 13:38:18;;;;;;;;;;;13.30;99.90;;;;;;5071987;28;19909;-64
2023/09/12 13:40:45;;;;;;;;;;;13.30;99.90;;;;;;5072277;28;19909;-64
2023/09/12 13:43:12;;;;;;;;;;;13.30;99.90;;;;;;5072133;28;19920;-66
2023/09/12 13:45:39;;;;;;;;;;;13.30;99.90;;;;;;5090301;28;19923;-64
2023/09/12 13:48:06;;;;;;;;;;;13.30;99.90;;;;;;5092058;28;19920;-64
2023/09/12 13:50:33;;;;;;;;;;;13.10;99.90;;;;;;5078335;28;19967;-64
2023/09/12 13:53:03;;;;;;;;;;;13.20;99.90;;;;;;5072524;28;19908;-64
2023/09/12 13:55:30;;;;;;;;;;;13.20;99.90;;;;;;5074943;28;20419;-66
2023/09/12 13:57:56;;;;;;;;;;;13.20;99.90;;;;;;5071701;28;20396;-63
2023/09/12 14:00:23;;;;;;;;;;;13.10;99.90;;;;;;5071898;28;19909;-66
2023/09/12 14:02:50;;;;;;;;;;;13.10;99.90;;;;;;5071882;28;19912;-66
2023/09/12 14:05:16;;;;;;;;;;;13.10;99.90;;;;;;5082210;28;19919;-68
2023/09/12 14:07:43;;;;;;;;;;;13.00;99.90;;;;;;5071697;28;20365;-65
2023/09/12 14:10:10;;;;;;;;;;;13.00;99.90;;;;;;5071959;28;20368;-66
2023/09/12 14:12:36;;;;;;;;;;;13.00;99.90;;;;;;5071979;28;19920;-65
2023/09/12 14:15:03;;;;;;;;;;;13.00;99.90;;;;;;5075164;28;20373;-64
2023/09/12 14:17:30;;;;;;;;;;;13.00;99.90;;;;;;5071832;28;20354;-64
2023/09/12 14:19:56;;;;;;;;;;;13.00;99.90;;;;;;5071758;28;19924;-65